sensor_id;sensor_type;location;lat;lon;timestamp;P1;durP1;ratioP1;P2;durP2;ratioP2
13252;SDS011;6693;54.370;10.132;2023-02-28T00:00:21;9.73;;;3.33;;
13252;SDS011;6693;54.370;10.132;2023-02-28T00:01:22;9.75;;;3.90;;
13252;SDS011;6693;54.370;10.132;2023-02-28T00:02:25;9.60;;;3.63;;
13252;SDS011;6693;54.370;10.132;2023-02-28T00:03:26;10.57;;;3.70;;
13252;SDS011;6693;54.370;10.132;2023-02-28T00:04:29;9.73;;;3.72;;
13252;SDS011;6693;54.370;10.132;2023-02-28T00:05:30;8.88;;;3.85;;
13252;SDS011;6693;54.370;10.132;2023-02-28T00:06:33;10.60;;;4.15;;
13252;SDS011;6693;54.370;10.132;2023-02-28T00:07:34;11.48;;;4.38;;
13252;SDS011;6693;54.370;10.132;2023-02-28T00:08:37;8.15;;;3.53;;
13252;SDS011;6693;54.370;10.132;2023-02-28T00:09:38;9.57;;;4.25;;
13252;SDS011;6693;54.370;10.132;2023-02-28T00:10:42;9.32;;;3.95;;
13252;SDS011;6693;54.370;10.132;2023-02-28T00:11:42;9.98;;;3.22;;
13252;SDS011;6693;54.370;10.132;2023-02-28T00:12:45;9.23;;;3.53;;
13252;SDS011;6693;54.370;10.132;2023-02-28T00:13:46;7.82;;;3.58;;
13252;SDS011;6693;54.370;10.132;2023-02-28T00:14:50;9.15;;;3.42;;
13252;SDS011;6693;54.370;10.132;2023-02-28T00:16:00;11.60;;;4.43;;
13252;SDS011;6693;54.370;10.132;2023-02-28T00:18:05;12.00;;;4.35;;
13252;SDS011;6693;54.370;10.132;2023-02-28T00:19:08;9.07;;;3.58;;
13252;SDS011;6693;54.370;10.132;2023-02-28T00:20:12;7.80;;;3.22;;
13252;SDS011;6693;54.370;10.132;2023-02-28T00:21:16;7.63;;;3.00;;
13252;SDS011;6693;54.370;10.132;2023-02-28T00:22:20;9.27;;;4.30;;
13252;SDS011;6693;54.370;10.132;2023-02-28T00:23:21;8.07;;;3.00;;
13252;SDS011;6693;54.370;10.132;2023-02-28T00:24:24;8.55;;;3.47;;
13252;SDS011;6693;54.370;10.132;2023-02-28T00:25:25;9.02;;;3.13;;
13252;SDS011;6693;54.370;10.132;2023-02-28T00:26:28;8.80;;;3.28;;
13252;SDS011;6693;54.370;10.132;2023-02-28T00:27:29;10.25;;;3.20;;
13252;SDS011;6693;54.370;10.132;2023-02-28T00:28:32;8.60;;;3.25;;
13252;SDS011;6693;54.370;10.132;2023-02-28T00:29:33;9.32;;;3.65;;
13252;SDS011;6693;54.370;10.132;2023-02-28T00:30:36;9.38;;;3.08;;
13252;SDS011;6693;54.370;10.132;2023-02-28T00:31:39;9.10;;;3.20;;
13252;SDS011;6693;54.370;10.132;2023-02-28T00:32:42;10.15;;;3.10;;
13252;SDS011;6693;54.370;10.132;2023-02-28T00:33:43;8.73;;;3.42;;
13252;SDS011;6693;54.370;10.132;2023-02-28T00:34:46;9.48;;;3.30;;
13252;SDS011;6693;54.370;10.132;2023-02-28T00:35:47;7.72;;;3.47;;
13252;SDS011;6693;54.370;10.132;2023-02-28T00:36:50;9.13;;;3.22;;
13252;SDS011;6693;54.370;10.132;2023-02-28T00:37:50;9.13;;;3.13;;
13252;SDS011;6693;54.370;10.132;2023-02-28T00:38:53;8.35;;;3.78;;
13252;SDS011;6693;54.370;10.132;2023-02-28T00:39:54;8.05;;;3.13;;
13252;SDS011;6693;54.370;10.132;2023-02-28T00:40:57;7.72;;;3.35;;
13252;SDS011;6693;54.370;10.132;2023-02-28T00:41:58;7.35;;;3.05;;
13252;SDS011;6693;54.370;10.132;2023-02-28T00:43:02;8.50;;;3.33;;
13252;SDS011;6693;54.370;10.132;2023-02-28T00:44:04;8.38;;;3.42;;
13252;SDS011;6693;54.370;10.132;2023-02-28T00:45:07;7.32;;;3.10;;
13252;SDS011;6693;54.370;10.132;2023-02-28T00:46:08;10.30;;;3.33;;
13252;SDS011;6693;54.370;10.132;2023-02-28T00:47:14;7.88;;;2.85;;
13252;SDS011;6693;54.370;10.132;2023-02-28T00:48:15;7.63;;;2.85;;
13252;SDS011;6693;54.370;10.132;2023-02-28T00:49:18;10.32;;;3.58;;
13252;SDS011;6693;54.370;10.132;2023-02-28T00:50:19;8.07;;;3.42;;
13252;SDS011;6693;54.370;10.132;2023-02-28T00:51:22;8.30;;;3.83;;
13252;SDS011;6693;54.370;10.132;2023-02-28T00:52:23;11.57;;;3.55;;
13252;SDS011;6693;54.370;10.132;2023-02-28T00:53:26;9.02;;;3.65;;
13252;SDS011;6693;54.370;10.132;2023-02-28T00:54:27;8.40;;;3.80;;
13252;SDS011;6693;54.370;10.132;2023-02-28T00:55:30;8.32;;;3.35;;
13252;SDS011;6693;54.370;10.132;2023-02-28T00:56:31;8.15;;;3.53;;
13252;SDS011;6693;54.370;10.132;2023-02-28T00:57:34;10.27;;;4.13;;
13252;SDS011;6693;54.370;10.132;2023-02-28T00:58:34;10.32;;;3.67;;
13252;SDS011;6693;54.370;10.132;2023-02-28T00:59:38;7.50;;;3.35;;
13252;SDS011;6693;54.370;10.132;2023-02-28T01:00:38;7.65;;;3.25;;
13252;SDS011;6693;54.370;10.132;2023-02-28T01:01:42;10.30;;;3.33;;
13252;SDS011;6693;54.370;10.132;2023-02-28T01:02:46;9.15;;;3.55;;
13252;SDS011;6693;54.370;10.132;2023-02-28T01:03:49;9.40;;;3.92;;
13252;SDS011;6693;54.370;10.132;2023-02-28T01:04:49;8.77;;;3.63;;
13252;SDS011;6693;54.370;10.132;2023-02-28T01:05:53;7.97;;;3.40;;
13252;SDS011;6693;54.370;10.132;2023-02-28T01:06:54;9.90;;;3.42;;
13252;SDS011;6693;54.370;10.132;2023-02-28T01:07:57;9.75;;;4.10;;
13252;SDS011;6693;54.370;10.132;2023-02-28T01:08:58;10.98;;;3.97;;
13252;SDS011;6693;54.370;10.132;2023-02-28T01:10:01;8.43;;;3.92;;
13252;SDS011;6693;54.370;10.132;2023-02-28T01:11:07;7.85;;;3.60;;
13252;SDS011;6693;54.370;10.132;2023-02-28T01:12:11;7.65;;;3.28;;
13252;SDS011;6693;54.370;10.132;2023-02-28T01:13:12;10.45;;;3.53;;
13252;SDS011;6693;54.370;10.132;2023-02-28T01:14:16;8.15;;;3.70;;
13252;SDS011;6693;54.370;10.132;2023-02-28T01:15:17;8.82;;;3.78;;
13252;SDS011;6693;54.370;10.132;2023-02-28T01:16:20;8.60;;;3.40;;
13252;SDS011;6693;54.370;10.132;2023-02-28T01:17:21;9.68;;;4.50;;
13252;SDS011;6693;54.370;10.132;2023-02-28T01:18:27;7.72;;;3.28;;
13252;SDS011;6693;54.370;10.132;2023-02-28T01:19:28;7.22;;;3.30;;
13252;SDS011;6693;54.370;10.132;2023-02-28T01:20:31;10.02;;;3.67;;
13252;SDS011;6693;54.370;10.132;2023-02-28T01:21:32;9.23;;;3.53;;
13252;SDS011;6693;54.370;10.132;2023-02-28T01:22:35;9.13;;;3.90;;
13252;SDS011;6693;54.370;10.132;2023-02-28T01:23:36;9.35;;;3.70;;
13252;SDS011;6693;54.370;10.132;2023-02-28T01:24:39;9.50;;;3.28;;
13252;SDS011;6693;54.370;10.132;2023-02-28T01:25:42;8.57;;;3.75;;
13252;SDS011;6693;54.370;10.132;2023-02-28T01:26:43;11.50;;;3.92;;
13252;SDS011;6693;54.370;10.132;2023-02-28T01:27:46;9.90;;;3.72;;
13252;SDS011;6693;54.370;10.132;2023-02-28T01:28:47;9.43;;;4.03;;
13252;SDS011;6693;54.370;10.132;2023-02-28T01:29:50;9.27;;;3.95;;
13252;SDS011;6693;54.370;10.132;2023-02-28T01:30:51;8.00;;;3.78;;
13252;SDS011;6693;54.370;10.132;2023-02-28T01:31:54;10.23;;;3.70;;
13252;SDS011;6693;54.370;10.132;2023-02-28T01:32:59;9.13;;;3.85;;
13252;SDS011;6693;54.370;10.132;2023-02-28T01:34:02;9.73;;;3.75;;
13252;SDS011;6693;54.370;10.132;2023-02-28T01:35:06;9.15;;;3.75;;
13252;SDS011;6693;54.370;10.132;2023-02-28T01:36:09;8.13;;;4.40;;
13252;SDS011;6693;54.370;10.132;2023-02-28T01:37:13;8.48;;;4.13;;
13252;SDS011;6693;54.370;10.132;2023-02-28T01:38:14;8.73;;;3.85;;
13252;SDS011;6693;54.370;10.132;2023-02-28T01:39:17;8.95;;;4.38;;
13252;SDS011;6693;54.370;10.132;2023-02-28T01:40:18;9.00;;;3.95;;
13252;SDS011;6693;54.370;10.132;2023-02-28T01:41:23;7.72;;;3.67;;
13252;SDS011;6693;54.370;10.132;2023-02-28T01:42:24;7.78;;;3.60;;
13252;SDS011;6693;54.370;10.132;2023-02-28T01:43:28;11.15;;;4.55;;
13252;SDS011;6693;54.370;10.132;2023-02-28T01:45:58;10.20;;;3.90;;
13252;SDS011;6693;54.370;10.132;2023-02-28T01:46:59;9.48;;;4.03;;
13252;SDS011;6693;54.370;10.132;2023-02-28T01:48:03;9.30;;;4.13;;
13252;SDS011;6693;54.370;10.132;2023-02-28T01:49:09;8.93;;;4.00;;
13252;SDS011;6693;54.370;10.132;2023-02-28T01:50:15;10.07;;;3.78;;
13252;SDS011;6693;54.370;10.132;2023-02-28T01:51:18;9.82;;;3.92;;
13252;SDS011;6693;54.370;10.132;2023-02-28T01:52:23;9.93;;;4.18;;
13252;SDS011;6693;54.370;10.132;2023-02-28T01:53:26;11.30;;;3.95;;
13252;SDS011;6693;54.370;10.132;2023-02-28T01:54:33;9.30;;;4.22;;
13252;SDS011;6693;54.370;10.132;2023-02-28T01:55:34;13.00;;;4.35;;
13252;SDS011;6693;54.370;10.132;2023-02-28T01:56:38;10.70;;;3.58;;
13252;SDS011;6693;54.370;10.132;2023-02-28T01:57:45;10.07;;;4.30;;
13252;SDS011;6693;54.370;10.132;2023-02-28T01:58:49;12.00;;;4.25;;
13252;SDS011;6693;54.370;10.132;2023-02-28T01:59:52;9.50;;;4.60;;
13252;SDS011;6693;54.370;10.132;2023-02-28T02:00:58;11.40;;;4.32;;
13252;SDS011;6693;54.370;10.132;2023-02-28T02:01:59;9.77;;;4.40;;
13252;SDS011;6693;54.370;10.132;2023-02-28T02:03:04;9.18;;;4.13;;
13252;SDS011;6693;54.370;10.132;2023-02-28T02:04:09;10.68;;;4.25;;
13252;SDS011;6693;54.370;10.132;2023-02-28T02:05:14;12.23;;;4.45;;
13252;SDS011;6693;54.370;10.132;2023-02-28T02:06:16;11.13;;;4.53;;
13252;SDS011;6693;54.370;10.132;2023-02-28T02:07:19;9.77;;;3.75;;
13252;SDS011;6693;54.370;10.132;2023-02-28T02:08:21;9.88;;;4.05;;
13252;SDS011;6693;54.370;10.132;2023-02-28T02:09:26;8.38;;;3.90;;
13252;SDS011;6693;54.370;10.132;2023-02-28T02:10:27;9.00;;;3.97;;
13252;SDS011;6693;54.370;10.132;2023-02-28T02:11:33;10.23;;;4.55;;
13252;SDS011;6693;54.370;10.132;2023-02-28T02:12:38;11.55;;;4.45;;
13252;SDS011;6693;54.370;10.132;2023-02-28T02:15:13;9.05;;;3.50;;
13252;SDS011;6693;54.370;10.132;2023-02-28T02:16:20;9.02;;;3.67;;
13252;SDS011;6693;54.370;10.132;2023-02-28T02:17:31;8.63;;;3.92;;
13252;SDS011;6693;54.370;10.132;2023-02-28T02:18:37;9.02;;;3.42;;
13252;SDS011;6693;54.370;10.132;2023-02-28T02:19:57;8.55;;;3.72;;
13252;SDS011;6693;54.370;10.132;2023-02-28T02:24:36;7.35;;;3.38;;
13252;SDS011;6693;54.370;10.132;2023-02-28T02:25:53;8.50;;;4.43;;
13252;SDS011;6693;54.370;10.132;2023-02-28T02:26:55;8.45;;;3.05;;
13252;SDS011;6693;54.370;10.132;2023-02-28T02:28:16;9.90;;;3.50;;
13252;SDS011;6693;54.370;10.132;2023-02-28T02:29:37;9.88;;;3.55;;
13252;SDS011;6693;54.370;10.132;2023-02-28T02:30:55;7.13;;;3.13;;
13252;SDS011;6693;54.370;10.132;2023-02-28T02:32:14;8.18;;;3.00;;
13252;SDS011;6693;54.370;10.132;2023-02-28T02:33:30;8.90;;;4.05;;
13252;SDS011;6693;54.370;10.132;2023-02-28T02:35:09;9.55;;;3.83;;
13252;SDS011;6693;54.370;10.132;2023-02-28T02:36:17;11.02;;;3.60;;
13252;SDS011;6693;54.370;10.132;2023-02-28T02:37:25;8.15;;;3.35;;
13252;SDS011;6693;54.370;10.132;2023-02-28T02:38:32;8.10;;;3.45;;
13252;SDS011;6693;54.370;10.132;2023-02-28T02:39:36;7.82;;;3.63;;
13252;SDS011;6693;54.370;10.132;2023-02-28T02:40:44;7.40;;;3.17;;
13252;SDS011;6693;54.370;10.132;2023-02-28T02:41:48;7.93;;;3.35;;
13252;SDS011;6693;54.370;10.132;2023-02-28T02:42:54;8.82;;;3.88;;
13252;SDS011;6693;54.370;10.132;2023-02-28T02:43:58;7.20;;;3.47;;
13252;SDS011;6693;54.370;10.132;2023-02-28T02:45:06;8.52;;;3.85;;
13252;SDS011;6693;54.370;10.132;2023-02-28T02:46:10;8.77;;;3.58;;
13252;SDS011;6693;54.370;10.132;2023-02-28T02:47:16;8.90;;;3.70;;
13252;SDS011;6693;54.370;10.132;2023-02-28T02:48:19;8.13;;;3.55;;
13252;SDS011;6693;54.370;10.132;2023-02-28T02:49:25;10.27;;;4.00;;
13252;SDS011;6693;54.370;10.132;2023-02-28T02:50:31;9.23;;;3.95;;
13252;SDS011;6693;54.370;10.132;2023-02-28T02:51:36;8.43;;;4.03;;
13252;SDS011;6693;54.370;10.132;2023-02-28T02:52:39;8.65;;;3.75;;
13252;SDS011;6693;54.370;10.132;2023-02-28T02:53:44;8.60;;;4.15;;
13252;SDS011;6693;54.370;10.132;2023-02-28T02:54:49;9.23;;;3.90;;
13252;SDS011;6693;54.370;10.132;2023-02-28T02:55:55;8.60;;;3.45;;
13252;SDS011;6693;54.370;10.132;2023-02-28T02:56:57;8.70;;;3.55;;
13252;SDS011;6693;54.370;10.132;2023-02-28T02:58:02;10.55;;;3.25;;
13252;SDS011;6693;54.370;10.132;2023-02-28T02:59:06;7.63;;;3.88;;
13252;SDS011;6693;54.370;10.132;2023-02-28T03:00:11;9.50;;;3.88;;
13252;SDS011;6693;54.370;10.132;2023-02-28T03:02:17;7.82;;;3.17;;
13252;SDS011;6693;54.370;10.132;2023-02-28T03:03:18;9.77;;;3.67;;
13252;SDS011;6693;54.370;10.132;2023-02-28T03:04:30;9.02;;;3.75;;
13252;SDS011;6693;54.370;10.132;2023-02-28T03:05:39;9.25;;;3.47;;
13252;SDS011;6693;54.370;10.132;2023-02-28T03:06:44;6.57;;;3.20;;
13252;SDS011;6693;54.370;10.132;2023-02-28T03:07:45;8.60;;;3.60;;
13252;SDS011;6693;54.370;10.132;2023-02-28T03:08:48;11.25;;;3.70;;
13252;SDS011;6693;54.370;10.132;2023-02-28T03:09:50;9.57;;;3.40;;
13252;SDS011;6693;54.370;10.132;2023-02-28T03:10:55;8.88;;;3.13;;
13252;SDS011;6693;54.370;10.132;2023-02-28T03:11:57;9.32;;;3.47;;
13252;SDS011;6693;54.370;10.132;2023-02-28T03:13:12;8.70;;;3.60;;
13252;SDS011;6693;54.370;10.132;2023-02-28T03:14:40;8.00;;;3.08;;
13252;SDS011;6693;54.370;10.132;2023-02-28T03:15:52;8.95;;;2.95;;
13252;SDS011;6693;54.370;10.132;2023-02-28T03:17:00;6.88;;;3.20;;
13252;SDS011;6693;54.370;10.132;2023-02-28T03:18:12;8.13;;;3.10;;
13252;SDS011;6693;54.370;10.132;2023-02-28T03:19:26;8.55;;;3.17;;
13252;SDS011;6693;54.370;10.132;2023-02-28T03:20:40;9.73;;;3.30;;
13252;SDS011;6693;54.370;10.132;2023-02-28T03:21:49;7.63;;;3.25;;
13252;SDS011;6693;54.370;10.132;2023-02-28T03:23:01;9.18;;;3.35;;
13252;SDS011;6693;54.370;10.132;2023-02-28T03:24:08;9.68;;;3.40;;
13252;SDS011;6693;54.370;10.132;2023-02-28T03:25:14;9.77;;;2.95;;
13252;SDS011;6693;54.370;10.132;2023-02-28T03:26:18;11.18;;;3.38;;
13252;SDS011;6693;54.370;10.132;2023-02-28T03:27:23;9.40;;;3.25;;
13252;SDS011;6693;54.370;10.132;2023-02-28T03:28:30;11.05;;;3.38;;
13252;SDS011;6693;54.370;10.132;2023-02-28T03:29:36;7.10;;;3.17;;
13252;SDS011;6693;54.370;10.132;2023-02-28T03:30:41;11.77;;;3.42;;
13252;SDS011;6693;54.370;10.132;2023-02-28T03:31:48;9.25;;;3.38;;
13252;SDS011;6693;54.370;10.132;2023-02-28T03:32:51;7.78;;;3.05;;
13252;SDS011;6693;54.370;10.132;2023-02-28T03:33:58;8.32;;;3.35;;
13252;SDS011;6693;54.370;10.132;2023-02-28T03:35:01;8.52;;;3.05;;
13252;SDS011;6693;54.370;10.132;2023-02-28T03:36:10;9.48;;;3.05;;
13252;SDS011;6693;54.370;10.132;2023-02-28T03:37:13;7.90;;;3.08;;
13252;SDS011;6693;54.370;10.132;2023-02-28T03:38:21;8.55;;;3.58;;
13252;SDS011;6693;54.370;10.132;2023-02-28T03:39:26;7.63;;;3.38;;
13252;SDS011;6693;54.370;10.132;2023-02-28T03:40:32;9.38;;;3.67;;
13252;SDS011;6693;54.370;10.132;2023-02-28T03:41:35;8.15;;;3.45;;
13252;SDS011;6693;54.370;10.132;2023-02-28T03:42:40;10.48;;;3.42;;
13252;SDS011;6693;54.370;10.132;2023-02-28T03:43:44;9.32;;;3.05;;
13252;SDS011;6693;54.370;10.132;2023-02-28T03:44:53;8.88;;;3.28;;
13252;SDS011;6693;54.370;10.132;2023-02-28T03:45:56;10.45;;;3.13;;
13252;SDS011;6693;54.370;10.132;2023-02-28T03:47:00;7.82;;;3.20;;
13252;SDS011;6693;54.370;10.132;2023-02-28T03:48:05;8.20;;;3.47;;
13252;SDS011;6693;54.370;10.132;2023-02-28T03:50:14;9.48;;;3.25;;
13252;SDS011;6693;54.370;10.132;2023-02-28T03:51:23;8.82;;;3.67;;
13252;SDS011;6693;54.370;10.132;2023-02-28T03:52:25;8.40;;;3.40;;
13252;SDS011;6693;54.370;10.132;2023-02-28T03:53:30;8.43;;;3.47;;
13252;SDS011;6693;54.370;10.132;2023-02-28T03:54:34;7.95;;;3.03;;
13252;SDS011;6693;54.370;10.132;2023-02-28T03:55:39;9.77;;;3.38;;
13252;SDS011;6693;54.370;10.132;2023-02-28T03:56:43;8.77;;;2.78;;
13252;SDS011;6693;54.370;10.132;2023-02-28T03:57:52;7.70;;;3.15;;
13252;SDS011;6693;54.370;10.132;2023-02-28T03:58:57;7.57;;;3.10;;
13252;SDS011;6693;54.370;10.132;2023-02-28T04:00:05;10.18;;;3.60;;
13252;SDS011;6693;54.370;10.132;2023-02-28T04:01:07;9.15;;;3.30;;
13252;SDS011;6693;54.370;10.132;2023-02-28T04:02:12;8.43;;;3.53;;
13252;SDS011;6693;54.370;10.132;2023-02-28T04:03:13;7.97;;;3.72;;
13252;SDS011;6693;54.370;10.132;2023-02-28T04:04:16;10.45;;;3.83;;
13252;SDS011;6693;54.370;10.132;2023-02-28T04:05:17;13.88;;;5.30;;
13252;SDS011;6693;54.370;10.132;2023-02-28T04:06:23;36.58;;;11.48;;
13252;SDS011;6693;54.370;10.132;2023-02-28T04:07:24;34.10;;;11.35;;
13252;SDS011;6693;54.370;10.132;2023-02-28T04:08:27;21.90;;;7.65;;
13252;SDS011;6693;54.370;10.132;2023-02-28T04:09:28;25.95;;;8.13;;
13252;SDS011;6693;54.370;10.132;2023-02-28T04:10:31;41.90;;;14.15;;
13252;SDS011;6693;54.370;10.132;2023-02-28T04:11:32;32.65;;;10.82;;
13252;SDS011;6693;54.370;10.132;2023-02-28T04:12:37;110.35;;;32.70;;
13252;SDS011;6693;54.370;10.132;2023-02-28T04:13:38;56.00;;;18.80;;
13252;SDS011;6693;54.370;10.132;2023-02-28T04:14:41;76.53;;;24.23;;
13252;SDS011;6693;54.370;10.132;2023-02-28T04:15:42;107.45;;;31.08;;
13252;SDS011;6693;54.370;10.132;2023-02-28T04:16:45;273.45;;;70.63;;
13252;SDS011;6693;54.370;10.132;2023-02-28T04:17:45;97.95;;;28.55;;
13252;SDS011;6693;54.370;10.132;2023-02-28T04:18:49;36.55;;;11.90;;
13252;SDS011;6693;54.370;10.132;2023-02-28T04:19:49;37.58;;;12.32;;
13252;SDS011;6693;54.370;10.132;2023-02-28T04:20:54;26.15;;;9.10;;
13252;SDS011;6693;54.370;10.132;2023-02-28T04:21:57;11.32;;;4.57;;
13252;SDS011;6693;54.370;10.132;2023-02-28T04:23:00;9.30;;;3.58;;
13252;SDS011;6693;54.370;10.132;2023-02-28T04:24:01;8.68;;;3.90;;
13252;SDS011;6693;54.370;10.132;2023-02-28T04:25:05;8.98;;;3.80;;
13252;SDS011;6693;54.370;10.132;2023-02-28T04:26:07;8.50;;;4.20;;
13252;SDS011;6693;54.370;10.132;2023-02-28T04:27:10;9.90;;;4.18;;
13252;SDS011;6693;54.370;10.132;2023-02-28T04:28:10;10.63;;;4.45;;
13252;SDS011;6693;54.370;10.132;2023-02-28T04:29:23;10.68;;;4.25;;
13252;SDS011;6693;54.370;10.132;2023-02-28T04:30:24;12.10;;;4.38;;
13252;SDS011;6693;54.370;10.132;2023-02-28T04:31:27;9.98;;;4.13;;
13252;SDS011;6693;54.370;10.132;2023-02-28T04:32:28;11.52;;;4.53;;
13252;SDS011;6693;54.370;10.132;2023-02-28T04:33:32;10.98;;;4.00;;
13252;SDS011;6693;54.370;10.132;2023-02-28T04:34:32;9.63;;;3.97;;
13252;SDS011;6693;54.370;10.132;2023-02-28T04:35:35;9.32;;;3.97;;
13252;SDS011;6693;54.370;10.132;2023-02-28T04:36:36;8.68;;;3.83;;
13252;SDS011;6693;54.370;10.132;2023-02-28T04:37:42;9.75;;;3.95;;
13252;SDS011;6693;54.370;10.132;2023-02-28T04:38:43;9.77;;;3.75;;
13252;SDS011;6693;54.370;10.132;2023-02-28T04:39:47;10.15;;;3.92;;
13252;SDS011;6693;54.370;10.132;2023-02-28T04:40:48;9.23;;;4.10;;
13252;SDS011;6693;54.370;10.132;2023-02-28T04:41:51;8.80;;;4.30;;
13252;SDS011;6693;54.370;10.132;2023-02-28T04:42:54;9.10;;;3.97;;
13252;SDS011;6693;54.370;10.132;2023-02-28T04:43:55;8.00;;;3.67;;
13252;SDS011;6693;54.370;10.132;2023-02-28T04:44:58;8.90;;;3.78;;
13252;SDS011;6693;54.370;10.132;2023-02-28T04:46:00;8.50;;;3.70;;
13252;SDS011;6693;54.370;10.132;2023-02-28T04:47:04;10.43;;;4.05;;
13252;SDS011;6693;54.370;10.132;2023-02-28T04:48:05;9.30;;;3.75;;
13252;SDS011;6693;54.370;10.132;2023-02-28T04:49:09;8.15;;;3.97;;
13252;SDS011;6693;54.370;10.132;2023-02-28T04:50:11;9.63;;;4.00;;
13252;SDS011;6693;54.370;10.132;2023-02-28T04:51:15;9.82;;;3.72;;
13252;SDS011;6693;54.370;10.132;2023-02-28T04:52:17;8.68;;;3.88;;
13252;SDS011;6693;54.370;10.132;2023-02-28T04:53:23;10.57;;;3.78;;
13252;SDS011;6693;54.370;10.132;2023-02-28T04:54:24;10.23;;;3.75;;
13252;SDS011;6693;54.370;10.132;2023-02-28T04:55:28;7.72;;;3.22;;
13252;SDS011;6693;54.370;10.132;2023-02-28T04:56:28;11.60;;;4.78;;
13252;SDS011;6693;54.370;10.132;2023-02-28T04:57:32;9.77;;;4.45;;
13252;SDS011;6693;54.370;10.132;2023-02-28T04:58:33;11.80;;;4.25;;
13252;SDS011;6693;54.370;10.132;2023-02-28T04:59:36;10.15;;;4.03;;
13252;SDS011;6693;54.370;10.132;2023-02-28T05:00:39;9.48;;;4.00;;
13252;SDS011;6693;54.370;10.132;2023-02-28T05:01:40;10.15;;;4.40;;
13252;SDS011;6693;54.370;10.132;2023-02-28T05:02:43;9.18;;;4.20;;
13252;SDS011;6693;54.370;10.132;2023-02-28T05:03:44;10.98;;;3.65;;
13252;SDS011;6693;54.370;10.132;2023-02-28T05:04:47;9.05;;;3.95;;
13252;SDS011;6693;54.370;10.132;2023-02-28T05:05:48;11.90;;;4.88;;
13252;SDS011;6693;54.370;10.132;2023-02-28T05:06:51;10.57;;;4.63;;
13252;SDS011;6693;54.370;10.132;2023-02-28T05:07:52;10.57;;;4.88;;
13252;SDS011;6693;54.370;10.132;2023-02-28T05:08:59;13.27;;;4.43;;
13252;SDS011;6693;54.370;10.132;2023-02-28T05:09:59;11.30;;;5.22;;
13252;SDS011;6693;54.370;10.132;2023-02-28T05:11:03;10.18;;;5.82;;
13252;SDS011;6693;54.370;10.132;2023-02-28T05:12:04;12.32;;;8.20;;
13252;SDS011;6693;54.370;10.132;2023-02-28T05:13:08;11.85;;;7.05;;
13252;SDS011;6693;54.370;10.132;2023-02-28T05:14:11;14.15;;;7.72;;
13252;SDS011;6693;54.370;10.132;2023-02-28T05:15:15;12.65;;;7.45;;
13252;SDS011;6693;54.370;10.132;2023-02-28T05:16:16;11.70;;;4.63;;
13252;SDS011;6693;54.370;10.132;2023-02-28T05:17:19;8.98;;;4.03;;
13252;SDS011;6693;54.370;10.132;2023-02-28T05:18:20;10.25;;;4.03;;
13252;SDS011;6693;54.370;10.132;2023-02-28T05:19:23;8.90;;;4.18;;
13252;SDS011;6693;54.370;10.132;2023-02-28T05:20:24;10.98;;;4.15;;
13252;SDS011;6693;54.370;10.132;2023-02-28T05:21:28;10.32;;;4.63;;
13252;SDS011;6693;54.370;10.132;2023-02-28T05:22:31;10.57;;;4.30;;
13252;SDS011;6693;54.370;10.132;2023-02-28T05:23:34;9.75;;;4.43;;
13252;SDS011;6693;54.370;10.132;2023-02-28T05:24:37;11.43;;;4.50;;
13252;SDS011;6693;54.370;10.132;2023-02-28T05:25:42;9.13;;;4.63;;
13252;SDS011;6693;54.370;10.132;2023-02-28T05:26:43;11.25;;;4.63;;
13252;SDS011;6693;54.370;10.132;2023-02-28T05:27:46;10.73;;;4.50;;
13252;SDS011;6693;54.370;10.132;2023-02-28T05:28:46;9.75;;;4.13;;
13252;SDS011;6693;54.370;10.132;2023-02-28T05:29:50;9.05;;;4.10;;
13252;SDS011;6693;54.370;10.132;2023-02-28T05:30:50;8.95;;;4.50;;
13252;SDS011;6693;54.370;10.132;2023-02-28T05:31:53;10.85;;;4.30;;
13252;SDS011;6693;54.370;10.132;2023-02-28T05:32:54;10.07;;;5.03;;
13252;SDS011;6693;54.370;10.132;2023-02-28T05:33:57;10.00;;;5.15;;
13252;SDS011;6693;54.370;10.132;2023-02-28T05:34:58;13.95;;;5.80;;
13252;SDS011;6693;54.370;10.132;2023-02-28T05:36:01;10.30;;;5.07;;
13252;SDS011;6693;54.370;10.132;2023-02-28T05:37:01;9.85;;;5.07;;
13252;SDS011;6693;54.370;10.132;2023-02-28T05:38:04;11.98;;;5.25;;
13252;SDS011;6693;54.370;10.132;2023-02-28T05:39:05;12.02;;;5.32;;
13252;SDS011;6693;54.370;10.132;2023-02-28T05:40:15;10.30;;;4.70;;
13252;SDS011;6693;54.370;10.132;2023-02-28T05:41:20;11.60;;;4.78;;
13252;SDS011;6693;54.370;10.132;2023-02-28T05:42:21;10.75;;;4.90;;
13252;SDS011;6693;54.370;10.132;2023-02-28T05:43:24;11.50;;;5.78;;
13252;SDS011;6693;54.370;10.132;2023-02-28T05:44:25;11.18;;;5.07;;
13252;SDS011;6693;54.370;10.132;2023-02-28T05:45:28;10.60;;;4.50;;
13252;SDS011;6693;54.370;10.132;2023-02-28T05:46:29;12.65;;;5.22;;
13252;SDS011;6693;54.370;10.132;2023-02-28T05:47:32;10.50;;;5.25;;
13252;SDS011;6693;54.370;10.132;2023-02-28T05:48:33;11.38;;;5.53;;
13252;SDS011;6693;54.370;10.132;2023-02-28T05:49:37;12.30;;;5.18;;
13252;SDS011;6693;54.370;10.132;2023-02-28T05:50:37;10.95;;;5.07;;
13252;SDS011;6693;54.370;10.132;2023-02-28T05:51:42;12.27;;;5.45;;
13252;SDS011;6693;54.370;10.132;2023-02-28T05:52:48;12.25;;;5.32;;
13252;SDS011;6693;54.370;10.132;2023-02-28T05:53:49;10.18;;;5.25;;
13252;SDS011;6693;54.370;10.132;2023-02-28T05:54:52;10.95;;;5.28;;
13252;SDS011;6693;54.370;10.132;2023-02-28T05:55:56;12.60;;;6.18;;
13252;SDS011;6693;54.370;10.132;2023-02-28T05:56:59;11.00;;;5.05;;
13252;SDS011;6693;54.370;10.132;2023-02-28T05:58:00;12.20;;;5.45;;
13252;SDS011;6693;54.370;10.132;2023-02-28T05:59:03;12.63;;;5.55;;
13252;SDS011;6693;54.370;10.132;2023-02-28T06:00:07;12.23;;;5.32;;
13252;SDS011;6693;54.370;10.132;2023-02-28T06:01:27;11.98;;;5.50;;
13252;SDS011;6693;54.370;10.132;2023-02-28T06:03:35;10.43;;;4.60;;
13252;SDS011;6693;54.370;10.132;2023-02-28T06:04:38;11.20;;;5.05;;
13252;SDS011;6693;54.370;10.132;2023-02-28T06:05:40;11.25;;;5.75;;
13252;SDS011;6693;54.370;10.132;2023-02-28T06:06:43;10.38;;;5.18;;
13252;SDS011;6693;54.370;10.132;2023-02-28T06:07:44;12.10;;;5.43;;
13252;SDS011;6693;54.370;10.132;2023-02-28T06:08:48;11.85;;;6.45;;
13252;SDS011;6693;54.370;10.132;2023-02-28T06:09:48;12.60;;;5.68;;
13252;SDS011;6693;54.370;10.132;2023-02-28T06:10:52;11.43;;;5.18;;
13252;SDS011;6693;54.370;10.132;2023-02-28T06:11:55;10.02;;;5.18;;
13252;SDS011;6693;54.370;10.132;2023-02-28T06:13:00;13.40;;;5.43;;
13252;SDS011;6693;54.370;10.132;2023-02-28T06:14:02;11.77;;;5.55;;
13252;SDS011;6693;54.370;10.132;2023-02-28T06:15:07;11.85;;;5.00;;
13252;SDS011;6693;54.370;10.132;2023-02-28T06:16:09;12.90;;;6.03;;
13252;SDS011;6693;54.370;10.132;2023-02-28T06:17:13;10.57;;;5.03;;
13252;SDS011;6693;54.370;10.132;2023-02-28T06:18:16;14.18;;;5.63;;
13252;SDS011;6693;54.370;10.132;2023-02-28T06:19:17;11.95;;;5.45;;
13252;SDS011;6693;54.370;10.132;2023-02-28T06:20:22;11.07;;;6.13;;
13252;SDS011;6693;54.370;10.132;2023-02-28T06:21:23;12.27;;;5.47;;
13252;SDS011;6693;54.370;10.132;2023-02-28T06:22:27;11.98;;;6.07;;
13252;SDS011;6693;54.370;10.132;2023-02-28T06:23:27;10.93;;;5.15;;
13252;SDS011;6693;54.370;10.132;2023-02-28T06:24:31;11.98;;;5.72;;
13252;SDS011;6693;54.370;10.132;2023-02-28T06:25:32;11.88;;;5.82;;
13252;SDS011;6693;54.370;10.132;2023-02-28T06:26:35;12.77;;;6.10;;
13252;SDS011;6693;54.370;10.132;2023-02-28T06:27:38;12.00;;;5.90;;
13252;SDS011;6693;54.370;10.132;2023-02-28T06:28:43;12.35;;;6.93;;
13252;SDS011;6693;54.370;10.132;2023-02-28T06:29:43;11.48;;;6.55;;
13252;SDS011;6693;54.370;10.132;2023-02-28T06:30:47;13.13;;;6.40;;
13252;SDS011;6693;54.370;10.132;2023-02-28T06:31:48;12.57;;;6.32;;
13252;SDS011;6693;54.370;10.132;2023-02-28T06:32:51;13.57;;;6.53;;